createdAt,value
2023-09-19T00:02:00.907Z,11.38
2023-09-19T00:04:30.188Z,13.57
2023-09-19T00:06:57.773Z,12.70
2023-09-19T00:09:28.600Z,11.77
2023-09-19T00:11:56.234Z,14.60
2023-09-19T00:14:26.593Z,11.32
2023-09-19T00:16:55.675Z,17.48
2023-09-19T00:19:24.512Z,11.52
2023-09-19T00:21:54.121Z,8.80
2023-09-19T00:24:24.482Z,8.25
2023-09-19T00:26:52.078Z,9.43
2023-09-19T00:29:19.933Z,11.15
2023-09-19T00:31:47.475Z,13.27
2023-09-19T00:34:17.580Z,11.60
2023-09-19T00:36:46.260Z,11.68
2023-09-19T00:39:14.382Z,13.23
2023-09-19T00:41:41.962Z,10.15
2023-09-19T00:44:10.557Z,10.68
2023-09-19T00:46:38.285Z,8.85
2023-09-19T00:49:06.424Z,7.68
2023-09-19T00:51:36.826Z,11.10
2023-09-19T00:54:05.583Z,12.82
2023-09-19T00:56:33.152Z,15.02
2023-09-19T00:59:00.762Z,11.23
2023-09-19T01:01:29.574Z,12.48
2023-09-19T01:03:57.316Z,12.48
2023-09-19T01:06:25.152Z,10.73
2023-09-19T01:08:56.902Z,15.10
2023-09-19T01:11:44.072Z,12.52
2023-09-19T01:14:49.201Z,12.27
2023-09-19T01:17:41.706Z,9.30
2023-09-19T01:20:29.056Z,12.13
2023-09-19T01:23:26.196Z,9.85
2023-09-19T01:26:57.072Z,13.30
2023-09-19T01:29:45.332Z,12.85
2023-09-19T01:32:18.257Z,8.55
2023-09-19T01:34:53.904Z,15.43
2023-09-19T01:37:32.700Z,9.02
2023-09-19T01:40:20.650Z,9.82
2023-09-19T01:43:28.865Z,12.38
2023-09-19T01:46:30.579Z,11.60
2023-09-19T01:49:03.375Z,11.88
2023-09-19T01:52:17.925Z,8.70
2023-09-19T01:54:53.992Z,14.50
2023-09-19T01:57:34.098Z,9.98
2023-09-19T02:00:09.633Z,13.90
2023-09-19T02:02:48.914Z,14.70
2023-09-19T02:05:28.939Z,12.43
2023-09-19T02:07:57.265Z,10.55
2023-09-19T02:10:24.987Z,9.48
2023-09-19T02:12:52.739Z,13.65
2023-09-19T02:15:20.487Z,11.88
2023-09-19T02:17:48.119Z,8.80
2023-09-19T02:20:16.098Z,7.57
2023-09-19T02:22:44.172Z,12.82
2023-09-19T02:25:12.151Z,8.25
2023-09-19T02:27:40.885Z,9.82
2023-09-19T02:30:08.941Z,11.25
2023-09-19T02:32:44.106Z,9.20
2023-09-19T02:35:12.429Z,13.68
2023-09-19T02:37:40.144Z,10.38
2023-09-19T02:40:19.946Z,10.02
2023-09-19T02:42:55.093Z,8.82
2023-09-19T02:45:24.779Z,13.27
2023-09-19T02:47:52.340Z,9.80
2023-09-19T02:50:19.921Z,10.85
2023-09-19T02:52:49.815Z,9.65
2023-09-19T02:55:21.083Z,10.70
2023-09-19T02:57:55.811Z,11.48
2023-09-19T03:00:24.965Z,10.32
2023-09-19T03:02:56.203Z,11.68
2023-09-19T03:05:24.930Z,10.02
2023-09-19T03:07:56.759Z,12.32
2023-09-19T03:10:26.102Z,11.38
2023-09-19T03:12:54.077Z,14.13
2023-09-19T03:15:22.983Z,8.93
2023-09-19T03:17:54.826Z,9.37
2023-09-19T03:20:24.526Z,9.63
2023-09-19T03:22:54.369Z,13.32
2023-09-19T03:25:24.274Z,10.15
2023-09-19T03:27:53.167Z,10.27
2023-09-19T03:30:22.396Z,8.52
2023-09-19T03:32:51.678Z,10.13
2023-09-19T03:35:20.557Z,10.27
2023-09-19T03:37:49.283Z,7.55
2023-09-19T03:40:18.621Z,9.73
2023-09-19T03:42:46.253Z,9.75
2023-09-19T03:45:15.505Z,6.72
2023-09-19T03:48:15.116Z,12.27
2023-09-19T03:50:45.058Z,9.18
2023-09-19T03:53:13.696Z,11.15
2023-09-19T03:55:41.259Z,10.13
2023-09-19T03:58:09.624Z,10.23
2023-09-19T04:00:39.678Z,10.65
2023-09-19T04:03:08.908Z,8.90
2023-09-19T04:05:36.533Z,9.02
2023-09-19T04:08:04.397Z,6.78
2023-09-19T04:10:31.913Z,10.35
2023-09-19T04:12:59.454Z,8.88
2023-09-19T04:15:27.006Z,9.00
2023-09-19T04:17:56.100Z,9.43
2023-09-19T04:20:24.377Z,8.32
2023-09-19T04:22:52.524Z,8.80
2023-09-19T04:25:20.275Z,5.93
2023-09-19T04:27:48.865Z,6.07
2023-09-19T04:30:17.307Z,8.02
2023-09-19T04:32:44.987Z,8.70
2023-09-19T04:35:12.622Z,10.57
2023-09-19T04:37:42.756Z,9.85
2023-09-19T04:40:20.820Z,9.38
2023-09-19T04:42:58.363Z,9.80
2023-09-19T04:45:27.483Z,8.95
2023-09-19T04:47:56.028Z,8.95
2023-09-19T04:50:24.548Z,7.78
2023-09-19T04:52:52.312Z,9.93
2023-09-19T04:55:20.845Z,9.35
2023-09-19T04:57:51.668Z,10.85
2023-09-19T05:00:28.708Z,8.43
2023-09-19T05:02:58.217Z,9.85
2023-09-19T05:05:27.167Z,10.80
2023-09-19T05:07:55.588Z,8.27
2023-09-19T05:10:23.386Z,9.25
2023-09-19T05:12:54.726Z,8.57
2023-09-19T05:15:22.430Z,8.70
2023-09-19T05:17:55.437Z,11.23
2023-09-19T05:20:33.516Z,11.15
2023-09-19T05:23:13.301Z,11.40
2023-09-19T05:25:41.981Z,10.35
2023-09-19T05:28:13.216Z,12.52
2023-09-19T05:30:49.016Z,12.52
2023-09-19T05:33:18.323Z,10.15
2023-09-19T05:35:48.191Z,6.65
2023-09-19T05:38:20.040Z,10.98
2023-09-19T05:40:47.687Z,11.25
2023-09-19T05:43:15.636Z,9.40
2023-09-19T05:45:43.283Z,8.18
2023-09-19T05:48:17.593Z,9.45
2023-09-19T05:50:48.026Z,8.18
2023-09-19T05:53:17.157Z,14.10
2023-09-19T05:55:45.008Z,10.63
2023-09-19T05:58:18.045Z,10.07
2023-09-19T06:00:48.363Z,10.25
2023-09-19T06:03:16.160Z,10.20
2023-09-19T06:05:43.786Z,12.80
2023-09-19T06:08:11.309Z,10.02
2023-09-19T06:10:38.963Z,12.43
2023-09-19T06:13:07.444Z,9.95
2023-09-19T06:15:37.280Z,10.38
2023-09-19T06:18:06.110Z,11.90
2023-09-19T06:20:36.546Z,10.85
2023-09-19T06:23:04.537Z,12.88
2023-09-19T06:25:32.668Z,10.32
2023-09-19T06:28:00.252Z,9.07
2023-09-19T06:30:30.537Z,9.13
2023-09-19T06:32:59.888Z,11.68
2023-09-19T06:35:33.993Z,12.30
2023-09-19T06:38:08.038Z,9.07
2023-09-19T06:40:36.176Z,14.45
2023-09-19T06:43:06.308Z,10.57
2023-09-19T06:45:33.940Z,9.70
2023-09-19T06:48:04.108Z,9.77
2023-09-19T06:50:34.205Z,8.50
2023-09-19T06:53:02.654Z,8.88
2023-09-19T06:55:32.667Z,10.38
2023-09-19T06:58:03.914Z,12.60
2023-09-19T07:00:58.059Z,9.50
2023-09-19T07:03:29.948Z,9.48
2023-09-19T07:05:59.803Z,12.18
2023-09-19T07:08:27.661Z,9.02
2023-09-19T07:10:57.769Z,14.68
2023-09-19T07:13:26.415Z,13.18
2023-09-19T07:15:54.160Z,11.68
2023-09-19T07:18:22.005Z,10.43
2023-09-19T07:20:52.825Z,11.00
2023-09-19T07:23:23.429Z,9.82
2023-09-19T07:26:01.104Z,12.73
2023-09-19T07:28:29.499Z,10.75
2023-09-19T07:30:57.536Z,10.80
2023-09-19T07:33:29.452Z,12.55
2023-09-19T07:35:57.415Z,8.70
2023-09-19T07:38:25.993Z,10.48
2023-09-19T07:40:53.565Z,13.25
2023-09-19T07:43:21.174Z,12.55
2023-09-19T07:45:49.267Z,12.15
2023-09-19T07:51:24.437Z,13.68
2023-09-19T07:53:52.082Z,14.88
2023-09-19T07:56:23.727Z,12.38
2023-09-19T07:58:51.570Z,10.45
2023-09-19T08:01:19.345Z,11.65
2023-09-19T08:03:47.085Z,15.07
2023-09-19T08:06:15.605Z,8.02
2023-09-19T08:08:43.350Z,13.75
2023-09-19T08:11:13.756Z,10.32
2023-09-19T08:13:44.744Z,11.35
2023-09-19T08:16:12.521Z,11.05
2023-09-19T08:18:43.208Z,9.93
2023-09-19T08:21:14.159Z,12.02
2023-09-19T08:23:43.167Z,10.07
2023-09-19T08:26:10.707Z,9.80
2023-09-19T08:28:41.807Z,10.65
2023-09-19T08:31:10.892Z,12.57
2023-09-19T08:33:39.398Z,10.40
2023-09-19T08:36:08.446Z,13.00
2023-09-19T08:38:37.961Z,12.13
2023-09-19T08:41:09.736Z,11.23
2023-09-19T08:43:37.848Z,11.30
2023-09-19T08:46:20.480Z,11.50
2023-09-19T08:49:06.228Z,12.85
2023-09-19T08:51:49.462Z,11.40
2023-09-19T08:54:30.413Z,13.00
2023-09-19T08:57:06.285Z,11.93
2023-09-19T08:59:36.394Z,9.75
2023-09-19T09:02:12.987Z,15.38
2023-09-19T09:04:46.563Z,14.95
2023-09-19T09:07:15.717Z,8.65
2023-09-19T09:09:48.157Z,10.20
2023-09-19T09:12:19.204Z,8.98
2023-09-19T09:14:50.945Z,10.55
2023-09-19T09:17:21.556Z,11.30
2023-09-19T09:19:49.457Z,12.02
2023-09-19T09:22:17.729Z,8.93
2023-09-19T09:24:59.521Z,10.60
2023-09-19T09:27:27.080Z,12.75
2023-09-19T09:29:57.857Z,10.98
2023-09-19T09:32:35.753Z,8.83
2023-09-19T09:35:15.833Z,8.65
2023-09-19T09:37:44.801Z,7.90
2023-09-19T09:40:18.101Z,9.07
2023-09-19T09:42:53.521Z,8.82
2023-09-19T09:45:33.941Z,12.50
2023-09-19T09:48:04.711Z,11.10
2023-09-19T09:50:39.652Z,9.77
2023-09-19T09:53:29.254Z,10.45
2023-09-19T09:56:01.007Z,10.70
2023-09-19T09:58:33.018Z,8.65
2023-09-19T10:01:03.059Z,9.68
2023-09-19T10:03:41.769Z,11.15
2023-09-19T10:06:24.959Z,11.63
2023-09-19T10:09:13.095Z,10.27
2023-09-19T10:11:48.320Z,13.80
2023-09-19T10:17:05.721Z,12.15
2023-09-19T10:19:51.986Z,14.70
2023-09-19T10:22:23.271Z,12.18
2023-09-19T10:25:02.286Z,10.70
2023-09-19T10:27:38.595Z,10.00
2023-09-19T10:30:09.702Z,8.13
2023-09-19T10:32:42.335Z,9.02
2023-09-19T10:35:14.332Z,8.38
2023-09-19T10:37:45.865Z,9.63
2023-09-19T10:40:17.198Z,9.63
2023-09-19T10:42:49.635Z,10.80
2023-09-19T10:45:21.612Z,7.55
2023-09-19T10:47:49.518Z,9.43
2023-09-19T10:50:26.964Z,11.13
2023-09-19T10:52:59.416Z,6.80
2023-09-19T10:55:31.195Z,8.13
2023-09-19T10:58:01.653Z,6.82
2023-09-19T11:00:35.449Z,7.28
2023-09-19T11:03:20.981Z,8.00
2023-09-19T11:06:20.313Z,10.07
2023-09-19T11:09:25.763Z,10.52
2023-09-19T11:11:58.267Z,9.82
2023-09-19T11:14:25.833Z,8.93
2023-09-19T11:17:17.098Z,8.05
2023-09-19T11:20:14.984Z,8.18
2023-09-19T11:22:49.718Z,7.53
2023-09-19T11:25:33.437Z,4.70
2023-09-19T11:28:07.795Z,7.25
2023-09-19T11:30:39.713Z,7.88
2023-09-19T11:33:35.170Z,7.53
2023-09-19T11:36:16.461Z,7.68
2023-09-19T11:38:47.607Z,6.70
2023-09-19T11:41:21.387Z,7.78
2023-09-19T11:43:54.650Z,7.57
2023-09-19T11:46:24.782Z,6.97
2023-09-19T11:48:57.408Z,12.30
2023-09-19T11:51:29.381Z,7.40
2023-09-19T11:54:03.387Z,9.63
2023-09-19T11:56:32.806Z,10.77
2023-09-19T11:59:01.274Z,6.65
2023-09-19T12:01:36.376Z,7.57
2023-09-19T12:04:05.891Z,8.15
2023-09-19T12:06:34.830Z,8.85
2023-09-19T12:09:08.107Z,7.45
2023-09-19T12:11:45.441Z,6.70
2023-09-19T12:14:28.533Z,6.50
2023-09-19T12:16:57.517Z,5.85
2023-09-19T12:19:26.483Z,4.80
2023-09-19T12:22:05.435Z,6.50
2023-09-19T12:24:38.767Z,10.93
2023-09-19T12:27:08.736Z,5.70
2023-09-19T12:29:50.628Z,5.43
2023-09-19T12:32:20.954Z,4.78
2023-09-19T12:34:54.547Z,8.55
2023-09-19T12:37:23.674Z,7.85
2023-09-19T12:39:57.496Z,9.52
2023-09-19T12:42:33.213Z,5.22
2023-09-19T12:45:02.004Z,5.10
2023-09-19T12:47:31.284Z,5.80
2023-09-19T12:50:19.799Z,6.18
2023-09-19T12:52:52.107Z,4.90
2023-09-19T12:55:29.927Z,5.45
2023-09-19T12:58:04.286Z,4.13
2023-09-19T13:00:45.726Z,6.68
2023-09-19T13:03:35.947Z,6.28
2023-09-19T13:06:05.445Z,5.25
2023-09-19T13:08:39.329Z,5.45
2023-09-19T13:19:56.702Z,4.25
2023-09-19T13:22:55.437Z,4.35
2023-09-19T13:25:23.492Z,4.35
2023-09-19T13:27:53.602Z,5.35
2023-09-19T13:30:26.142Z,4.30
2023-09-19T13:33:12.157Z,4.78
2023-09-19T13:35:42.065Z,6.18
2023-09-19T13:38:14.012Z,6.15
2023-09-19T13:40:43.414Z,4.72
2023-09-19T13:43:12.560Z,3.92
2023-09-19T13:45:43.610Z,5.95
2023-09-19T13:48:14.236Z,4.70
2023-09-19T13:50:43.619Z,7.67
2023-09-19T13:53:11.554Z,6.45
2023-09-19T13:55:39.294Z,5.40
2023-09-19T13:58:07.979Z,5.72
2023-09-19T14:00:35.614Z,3.90
2023-09-19T14:03:05.634Z,3.92
2023-09-19T14:05:33.909Z,4.07
2023-09-19T14:08:02.148Z,5.38
2023-09-19T14:10:32.471Z,3.38
2023-09-19T14:13:00.709Z,4.25
2023-09-19T14:15:33.458Z,4.03
2023-09-19T14:18:01.993Z,6.43
2023-09-19T14:20:31.406Z,4.90
2023-09-19T14:23:02.996Z,4.95
2023-09-19T14:25:31.520Z,3.90
2023-09-19T14:27:59.327Z,4.38
2023-09-19T14:30:27.304Z,4.88
2023-09-19T14:32:54.959Z,3.45
2023-09-19T14:35:24.167Z,5.32
2023-09-19T14:37:52.402Z,5.07
2023-09-19T14:40:20.107Z,5.10
2023-09-19T14:42:49.357Z,5.15
2023-09-19T14:45:19.371Z,7.37
2023-09-19T14:47:48.230Z,3.50
2023-09-19T14:50:16.925Z,5.88
2023-09-19T14:52:45.836Z,4.03
2023-09-19T14:55:15.233Z,4.43
2023-09-19T14:57:45.515Z,5.40
2023-09-19T15:00:14.901Z,4.70
2023-09-19T15:02:42.824Z,5.13
2023-09-19T15:05:10.740Z,6.95
2023-09-19T15:07:38.976Z,5.13
2023-09-19T15:10:10.755Z,4.25
2023-09-19T15:12:39.460Z,5.75
2023-09-19T15:15:10.586Z,6.47
2023-09-19T15:17:38.563Z,5.38
2023-09-19T15:20:08.209Z,4.45
2023-09-19T15:22:36.127Z,3.80
2023-09-19T15:25:05.150Z,4.40
2023-09-19T15:27:33.996Z,5.90
2023-09-19T15:30:03.731Z,6.25
2023-09-19T15:32:32.182Z,3.15
2023-09-19T15:34:59.927Z,4.38
2023-09-19T15:37:27.642Z,5.35
2023-09-19T15:39:55.372Z,3.67
2023-09-19T15:42:22.882Z,5.82
2023-09-19T15:44:52.517Z,6.07
2023-09-19T15:47:20.995Z,5.22
2023-09-19T15:49:50.288Z,2.90
2023-09-19T15:52:19.313Z,5.68
2023-09-19T15:54:47.432Z,3.83
2023-09-19T15:57:15.318Z,4.63
2023-09-19T15:59:42.934Z,5.55
2023-09-19T16:02:10.645Z,6.53
2023-09-19T16:04:39.625Z,5.05
2023-09-19T16:07:07.884Z,3.10
2023-09-19T16:09:36.700Z,5.68
2023-09-19T16:12:04.792Z,5.93
2023-09-19T16:14:32.554Z,5.35
2023-09-19T16:17:01.249Z,4.47
2023-09-19T16:19:29.097Z,4.05
2023-09-19T16:22:00.549Z,5.03
2023-09-19T16:26:55.483Z,4.93
2023-09-19T16:29:25.494Z,4.88
2023-09-19T16:31:53.504Z,4.97
2023-09-19T16:34:21.157Z,5.50
2023-09-19T16:36:49.162Z,4.72
2023-09-19T16:39:16.950Z,4.75
2023-09-19T16:41:44.506Z,4.53
2023-09-19T16:44:14.550Z,4.85
2023-09-19T16:46:42.760Z,3.57
2023-09-19T16:49:10.533Z,3.67
2023-09-19T16:51:39.033Z,4.65
2023-09-19T16:54:06.883Z,6.22
2023-09-19T16:56:37.808Z,4.20
2023-09-19T16:59:06.802Z,6.05
2023-09-19T17:01:34.687Z,5.53
2023-09-19T17:04:04.026Z,5.60
2023-09-19T17:06:32.232Z,8.63
2023-09-19T17:08:59.935Z,5.00
2023-09-19T17:11:30.083Z,3.53
2023-09-19T17:13:58.435Z,5.13
2023-09-19T17:16:29.840Z,3.85
2023-09-19T17:18:58.609Z,3.78
2023-09-19T17:21:27.984Z,6.45
2023-09-19T17:23:56.621Z,7.07
2023-09-19T17:26:26.207Z,6.13
2023-09-19T17:28:55.131Z,7.03
2023-09-19T17:31:27.238Z,5.68
2023-09-19T17:33:55.640Z,5.10
2023-09-19T17:36:27.024Z,4.47
2023-09-19T17:41:25.215Z,5.53
2023-09-19T17:44:00.608Z,5.18
2023-09-19T17:46:30.351Z,7.47
2023-09-19T17:49:01.237Z,6.35
2023-09-19T17:51:30.120Z,6.97
2023-09-19T17:54:01.025Z,6.80
2023-09-19T17:56:30.862Z,5.07
2023-09-19T17:59:00.659Z,7.65
2023-09-19T18:01:29.959Z,5.00
2023-09-19T18:03:59.931Z,7.22
2023-09-19T18:06:30.332Z,7.45
2023-09-19T18:08:58.602Z,5.20
2023-09-19T18:11:28.043Z,6.28
2023-09-19T18:13:59.288Z,6.95
2023-09-19T18:16:32.604Z,6.13
2023-09-19T18:19:03.721Z,6.93
2023-09-19T18:21:34.576Z,5.55
2023-09-19T18:24:05.567Z,7.90
2023-09-19T18:26:39.185Z,6.88
2023-09-19T18:29:07.613Z,6.00
2023-09-19T18:31:35.960Z,5.55
2023-09-19T18:34:04.220Z,5.85
2023-09-19T18:36:34.149Z,6.80
2023-09-19T18:39:03.048Z,6.50
2023-09-19T18:41:31.076Z,4.53
2023-09-19T18:43:59.734Z,5.70
2023-09-19T18:46:32.044Z,5.13
2023-09-19T18:49:01.105Z,5.82
2023-09-19T18:51:32.403Z,5.22
2023-09-19T18:54:12.809Z,4.47
2023-09-19T18:56:43.475Z,4.82
2023-09-19T18:59:15.323Z,5.60
2023-09-19T19:01:45.060Z,6.60
2023-09-19T19:04:13.870Z,5.57
2023-09-19T19:06:42.507Z,8.65
2023-09-19T19:09:10.677Z,5.63
2023-09-19T19:11:39.820Z,8.93
2023-09-19T19:14:07.967Z,6.05
2023-09-19T19:16:38.535Z,6.05
2023-09-19T19:19:09.516Z,5.43
2023-09-19T19:21:40.535Z,6.43
2023-09-19T19:24:08.482Z,6.20
2023-09-19T19:26:37.574Z,4.75
2023-09-19T19:29:08.373Z,6.00
2023-09-19T19:31:39.683Z,8.52
2023-09-19T19:34:10.005Z,7.18
2023-09-19T19:36:38.267Z,8.33
2023-09-19T19:39:09.283Z,6.47
2023-09-19T19:41:39.884Z,8.68
2023-09-19T19:44:09.407Z,5.55
2023-09-19T19:46:38.873Z,4.55
2023-09-19T19:49:10.711Z,8.23
2023-09-19T19:51:43.764Z,5.20
2023-09-19T19:54:15.711Z,7.90
2023-09-19T19:56:44.031Z,4.90
2023-09-19T19:59:19.370Z,6.63
2023-09-19T20:01:48.748Z,7.88
2023-09-19T20:04:18.595Z,4.55
2023-09-19T20:06:48.499Z,5.93
2023-09-19T20:09:17.733Z,5.65
2023-09-19T20:11:50.438Z,5.15
2023-09-19T20:14:18.643Z,6.20
2023-09-19T20:16:47.126Z,8.65
2023-09-19T20:19:16.034Z,9.02
2023-09-19T20:21:45.341Z,5.78
2023-09-19T20:24:17.101Z,7.53
2023-09-19T20:26:45.671Z,5.22
2023-09-19T20:29:15.415Z,6.18
2023-09-19T20:31:46.724Z,6.03
2023-09-19T20:34:16.759Z,6.22
2023-09-19T20:36:44.869Z,6.85
2023-09-19T20:39:14.340Z,5.38
2023-09-19T20:41:43.691Z,7.43
2023-09-19T20:44:12.141Z,7.40
2023-09-19T20:46:40.757Z,5.45
2023-09-19T20:49:09.525Z,6.97
2023-09-19T20:51:39.956Z,4.60
2023-09-19T20:54:09.624Z,5.53
2023-09-19T20:56:38.923Z,5.07
2023-09-19T20:59:06.763Z,7.90
2023-09-19T21:01:34.457Z,7.60
2023-09-19T21:04:04.472Z,6.63
2023-09-19T21:06:32.263Z,6.07
2023-09-19T21:08:59.885Z,6.95
2023-09-19T21:11:28.170Z,6.13
2023-09-19T21:13:56.403Z,4.47
2023-09-19T21:16:24.182Z,5.88
2023-09-19T21:18:51.841Z,5.80
2023-09-19T21:21:21.791Z,6.60
2023-09-19T21:23:49.411Z,7.22
2023-09-19T21:26:17.143Z,6.07
2023-09-19T21:28:47.203Z,8.80
2023-09-19T21:31:15.091Z,7.32
2023-09-19T21:33:43.614Z,7.28
2023-09-19T21:36:20.873Z,4.80
2023-09-19T21:38:50.706Z,8.80
2023-09-19T21:41:21.083Z,9.07
2023-09-19T21:43:51.220Z,8.75
2023-09-19T21:46:20.509Z,6.72
2023-09-19T21:48:51.871Z,5.28
2023-09-19T21:51:19.499Z,5.32
2023-09-19T21:53:47.692Z,6.85
2023-09-19T21:56:16.301Z,6.20
2023-09-19T21:58:45.048Z,8.32
2023-09-19T22:01:23.337Z,7.13
2023-09-19T22:03:51.228Z,8.55
2023-09-19T22:06:19.143Z,8.30
2023-09-19T22:08:50.807Z,5.97
2023-09-19T22:11:21.663Z,8.60
2023-09-19T22:13:50.235Z,6.20
2023-09-19T22:16:19.632Z,5.90
2023-09-19T22:18:47.831Z,8.30
2023-09-19T22:21:23.222Z,4.85
2023-09-19T22:23:54.095Z,5.60
2023-09-19T22:26:24.130Z,5.40
2023-09-19T22:28:56.627Z,6.60
2023-09-19T22:31:29.227Z,5.85
2023-09-19T22:33:57.139Z,4.75
2023-09-19T22:36:48.616Z,6.55
2023-09-19T22:39:26.135Z,5.22
2023-09-19T22:42:05.588Z,5.30
2023-09-19T22:44:34.064Z,6.75
2023-09-19T22:47:03.564Z,6.35
2023-09-19T22:49:33.275Z,6.88
2023-09-19T22:52:01.016Z,8.02
2023-09-19T22:54:28.824Z,7.75
2023-09-19T22:56:56.898Z,8.45
2023-09-19T22:59:24.947Z,5.72
2023-09-19T23:01:53.721Z,6.05
2023-09-19T23:04:22.945Z,5.03
2023-09-19T23:06:53.433Z,5.95
2023-09-19T23:09:24.219Z,9.02
2023-09-19T23:12:04.371Z,8.57
2023-09-19T23:14:36.517Z,7.28
2023-09-19T23:17:09.844Z,7.28
2023-09-19T23:19:38.736Z,6.13
2023-09-19T23:22:18.508Z,6.97
2023-09-19T23:24:50.835Z,6.25
2023-09-19T23:27:26.399Z,7.70
2023-09-19T23:29:56.683Z,5.75
2023-09-19T23:32:24.352Z,5.22
2023-09-19T23:34:52.228Z,7.53
2023-09-19T23:37:21.314Z,8.57
2023-09-19T23:39:52.095Z,7.38
2023-09-19T23:42:20.275Z,8.00
2023-09-19T23:44:50.235Z,5.82
2023-09-19T23:47:18.999Z,9.05
2023-09-19T23:49:50.692Z,6.78
2023-09-19T23:52:19.491Z,5.80
2023-09-19T23:54:48.555Z,6.50
2023-09-19T23:57:17.989Z,7.60
2023-09-19T23:59:45.628Z,5.20
